createdAt,value
2023-04-26T00:00:09.269Z,8.43
2023-04-26T00:02:37.650Z,10.52
2023-04-26T00:05:05.970Z,12.77
2023-04-26T00:07:34.177Z,9.90
2023-04-26T00:10:01.675Z,13.02
2023-04-26T00:12:29.228Z,6.85
2023-04-26T00:14:58.239Z,11.45
2023-04-26T00:17:25.879Z,8.82
2023-04-26T00:19:53.357Z,13.52
2023-04-26T00:22:20.849Z,12.63
2023-04-26T00:24:48.717Z,11.40
2023-04-26T00:27:16.229Z,11.73
2023-04-26T00:29:43.896Z,7.28
2023-04-26T00:32:12.793Z,8.60
2023-04-26T00:34:41.052Z,11.85
2023-04-26T00:37:08.588Z,8.82
2023-04-26T00:39:36.172Z,7.60
2023-04-26T00:42:03.673Z,10.70
2023-04-26T00:44:31.231Z,8.82
2023-04-26T00:46:58.752Z,8.25
2023-04-26T00:49:27.616Z,7.20
2023-04-26T00:51:55.490Z,10.45
2023-04-26T00:54:23.175Z,9.52
2023-04-26T00:56:52.109Z,6.38
2023-04-26T00:59:20.526Z,9.63
2023-04-26T01:01:48.952Z,9.52
2023-04-26T01:04:16.804Z,8.48
2023-04-26T01:06:46.699Z,9.98
2023-04-26T01:09:15.656Z,13.73
2023-04-26T01:24:03.495Z,8.40
2023-04-26T01:26:31.097Z,8.90
2023-04-26T01:36:21.120Z,8.93
2023-04-26T01:38:48.614Z,14.52
2023-04-26T01:41:18.027Z,10.23
2023-04-26T01:43:45.561Z,9.57
2023-04-26T01:46:13.064Z,9.32
2023-04-26T01:48:40.692Z,9.63
2023-04-26T01:51:08.466Z,13.90
2023-04-26T01:53:35.994Z,8.20
2023-04-26T01:56:03.678Z,8.18
2023-04-26T01:58:33.119Z,8.65
2023-04-26T02:01:06.348Z,9.75
2023-04-26T02:03:33.951Z,11.57
2023-04-26T02:06:01.499Z,10.45
2023-04-26T02:08:29.043Z,11.02
2023-04-26T02:10:56.602Z,8.10
2023-04-26T02:13:24.689Z,9.93
2023-04-26T02:15:53.618Z,19.15
2023-04-26T02:18:22.069Z,8.18
2023-04-26T02:20:49.860Z,11.68
2023-04-26T02:23:17.365Z,6.75
2023-04-26T02:25:46.821Z,10.30
2023-04-26T02:28:14.568Z,10.43
2023-04-26T02:30:42.085Z,10.30
2023-04-26T02:33:10.959Z,7.65
2023-04-26T02:35:38.680Z,12.07
2023-04-26T02:38:06.407Z,7.53
2023-04-26T02:40:33.971Z,8.45
2023-04-26T02:43:01.622Z,8.82
2023-04-26T02:45:29.177Z,10.70
2023-04-26T02:47:56.815Z,7.88
2023-04-26T02:50:25.672Z,10.15
2023-04-26T02:52:53.302Z,9.13
2023-04-26T02:55:21.710Z,11.75
2023-04-26T02:57:49.228Z,9.30
2023-04-26T03:00:17.535Z,14.98
2023-04-26T03:02:45.154Z,9.70
2023-04-26T03:05:13.731Z,10.55
2023-04-26T03:07:42.596Z,12.15
2023-04-26T03:10:10.830Z,11.05
2023-04-26T03:12:38.323Z,13.05
2023-04-26T03:15:06.133Z,10.07
2023-04-26T03:17:33.704Z,9.90
2023-04-26T03:20:02.799Z,10.57
2023-04-26T03:22:30.543Z,10.23
2023-04-26T03:24:59.457Z,10.52
2023-04-26T03:27:26.973Z,11.95
2023-04-26T03:29:54.471Z,13.63
2023-04-26T03:32:21.997Z,10.15
2023-04-26T03:34:49.967Z,17.38
2023-04-26T03:37:17.555Z,13.00
2023-04-26T03:39:45.222Z,11.93
2023-04-26T03:42:14.314Z,11.95
2023-04-26T03:44:41.985Z,19.83
2023-04-26T03:47:09.602Z,10.88
2023-04-26T03:49:37.090Z,14.00
2023-04-26T03:52:07.571Z,10.32
2023-04-26T03:54:35.289Z,17.40
2023-04-26T03:57:02.815Z,13.98
2023-04-26T03:59:31.911Z,19.77
2023-04-26T04:01:59.600Z,15.77
2023-04-26T04:04:27.494Z,9.90
2023-04-26T04:06:55.291Z,14.25
2023-04-26T04:09:22.865Z,11.15
2023-04-26T04:11:50.427Z,10.98
2023-04-26T04:14:18.003Z,8.10
2023-04-26T04:16:46.980Z,10.02
2023-04-26T04:19:14.682Z,12.52
2023-04-26T04:21:43.324Z,11.02
2023-04-26T04:24:11.493Z,9.57
2023-04-26T04:26:39.127Z,13.63
2023-04-26T04:29:09.526Z,9.77
2023-04-26T04:31:37.259Z,10.88
2023-04-26T04:34:06.110Z,13.25
2023-04-26T04:36:33.987Z,12.40
2023-04-26T04:39:02.238Z,8.15
2023-04-26T04:41:29.760Z,11.68
2023-04-26T04:43:57.209Z,9.18
2023-04-26T04:46:25.425Z,12.15
2023-04-26T04:48:53.845Z,12.75
2023-04-26T04:51:22.867Z,16.20
2023-04-26T04:53:51.380Z,16.25
2023-04-26T04:56:19.587Z,17.65
2023-04-26T04:58:47.822Z,21.13
2023-04-26T05:01:15.483Z,13.68
2023-04-26T05:03:43.129Z,18.30
2023-04-26T05:06:10.910Z,13.10
2023-04-26T05:08:39.930Z,18.90
2023-04-26T05:25:53.320Z,10.00
2023-04-26T05:28:21.840Z,13.50
2023-04-26T05:38:32.379Z,9.05
2023-04-26T05:43:28.616Z,7.20
2023-04-26T06:20:34.661Z,10.18
2023-04-26T06:23:02.172Z,8.18
2023-04-26T06:25:29.840Z,11.25
2023-04-26T06:27:58.693Z,7.22
2023-04-26T06:30:26.201Z,9.93
2023-04-26T06:32:54.262Z,12.05
2023-04-26T06:35:23.330Z,11.00
2023-04-26T06:37:52.823Z,12.93
2023-04-26T06:40:20.978Z,12.73
2023-04-26T06:42:48.498Z,10.20
2023-04-26T06:45:16.212Z,10.70
2023-04-26T06:47:43.982Z,10.57
2023-04-26T06:50:11.913Z,10.40
2023-04-26T06:52:39.518Z,10.02
2023-04-26T06:55:09.408Z,10.93
2023-04-26T06:57:38.111Z,15.55
2023-04-26T07:00:06.369Z,11.52
2023-04-26T07:02:34.314Z,26.47
2023-04-26T07:05:02.262Z,11.88
2023-04-26T07:07:29.821Z,12.60
2023-04-26T07:09:57.330Z,11.30
2023-04-26T07:12:27.178Z,7.50
2023-04-26T07:14:54.756Z,9.85
2023-04-26T07:17:22.348Z,8.35
2023-04-26T07:19:49.881Z,15.10
2023-04-26T07:22:17.475Z,7.22
2023-04-26T07:24:45.057Z,11.98
2023-04-26T07:27:12.563Z,11.07
2023-04-26T07:29:41.789Z,16.98
2023-04-26T07:32:12.376Z,13.18
2023-04-26T07:34:39.948Z,7.03
2023-04-26T07:37:07.509Z,9.95
2023-04-26T07:39:36.318Z,9.25
2023-04-26T07:42:03.972Z,6.10
2023-04-26T07:47:02.496Z,8.25
2023-04-26T07:49:30.123Z,10.40
2023-04-26T07:52:02.568Z,7.53
2023-04-26T07:54:30.121Z,12.65
2023-04-26T07:56:57.746Z,7.95
2023-04-26T07:59:25.678Z,11.23
2023-04-26T08:01:53.301Z,8.80
2023-04-26T08:04:30.906Z,7.88
2023-04-26T08:06:59.067Z,13.90
2023-04-26T08:09:26.578Z,9.90
2023-04-26T08:11:54.142Z,9.48
2023-04-26T08:14:21.760Z,13.48
2023-04-26T08:16:51.676Z,8.43
2023-04-26T08:19:19.394Z,8.75
2023-04-26T08:21:48.505Z,7.60
2023-04-26T08:24:16.068Z,8.43
2023-04-26T08:26:43.555Z,6.65
2023-04-26T08:29:11.141Z,12.18
2023-04-26T08:31:38.753Z,12.10
2023-04-26T08:34:06.492Z,10.48
2023-04-26T08:36:37.122Z,9.45
2023-04-26T08:39:07.007Z,8.32
2023-04-26T08:41:37.374Z,11.77
2023-04-26T08:44:08.886Z,9.77
2023-04-26T08:46:41.983Z,10.18
2023-04-26T08:49:14.559Z,14.85
2023-04-26T08:51:42.911Z,8.75
2023-04-26T08:54:12.374Z,10.57
2023-04-26T08:56:40.487Z,9.13
2023-04-26T08:59:08.285Z,11.25
2023-04-26T09:01:36.001Z,11.38
2023-04-26T09:04:04.061Z,10.10
2023-04-26T09:06:32.111Z,11.52
2023-04-26T09:09:00.324Z,14.27
2023-04-26T09:11:30.059Z,12.85
2023-04-26T09:13:58.102Z,6.97
2023-04-26T09:16:36.050Z,8.45
2023-04-26T09:19:03.731Z,11.30
2023-04-26T09:21:31.979Z,9.10
2023-04-26T09:24:00.234Z,10.75
2023-04-26T09:26:29.123Z,11.05
2023-04-26T09:29:13.347Z,15.55
2023-04-26T09:31:41.811Z,12.18
2023-04-26T09:34:10.673Z,8.85
2023-04-26T09:36:47.786Z,7.85
2023-04-26T09:39:15.461Z,10.27
2023-04-26T09:41:45.791Z,10.63
2023-04-26T09:44:23.275Z,11.93
2023-04-26T09:47:05.262Z,7.90
2023-04-26T09:49:35.209Z,14.27
2023-04-26T09:52:03.467Z,11.25
2023-04-26T09:57:32.094Z,9.23
2023-04-26T10:00:00.917Z,9.40
2023-04-26T10:02:29.931Z,13.10
2023-04-26T10:05:00.178Z,9.77
2023-04-26T10:07:27.871Z,9.68
2023-04-26T10:09:55.932Z,7.72
2023-04-26T10:12:23.580Z,9.95
2023-04-26T10:14:52.412Z,11.25
2023-04-26T10:17:20.550Z,11.43
2023-04-26T10:19:49.425Z,10.18
2023-04-26T10:22:18.409Z,11.23
2023-04-26T10:24:46.207Z,14.30
2023-04-26T10:27:13.854Z,15.15
2023-04-26T10:29:59.791Z,14.60
2023-04-26T10:32:29.234Z,8.75
2023-04-26T10:35:15.411Z,10.30
2023-04-26T10:37:59.095Z,13.85
2023-04-26T10:40:27.417Z,10.13
2023-04-26T10:46:35.074Z,14.25
2023-04-26T10:49:14.976Z,10.05
2023-04-26T10:51:43.640Z,11.43
2023-04-26T10:54:11.227Z,8.65
2023-04-26T10:56:54.685Z,16.05
2023-04-26T10:59:36.320Z,8.68
2023-04-26T11:02:10.951Z,11.63
2023-04-26T11:04:53.152Z,9.43
2023-04-26T11:11:01.536Z,12.45
2023-04-26T11:13:37.413Z,8.98
2023-04-26T11:22:13.863Z,9.13
2023-04-26T11:25:12.321Z,12.65
2023-04-26T11:27:39.807Z,17.98
2023-04-26T11:30:08.960Z,8.77
2023-04-26T11:32:36.615Z,12.50
2023-04-26T11:35:04.507Z,9.25
2023-04-26T11:37:35.161Z,9.52
2023-04-26T11:40:04.877Z,6.97
2023-04-26T11:42:33.305Z,8.80
2023-04-26T11:45:01.739Z,9.30
2023-04-26T11:47:30.828Z,10.57
2023-04-26T11:49:58.398Z,8.30
2023-04-26T11:52:26.168Z,7.45
2023-04-26T11:55:05.947Z,11.40
2023-04-26T11:57:37.724Z,11.75
2023-04-26T12:00:10.797Z,13.32
2023-04-26T12:02:38.573Z,12.07
2023-04-26T12:05:08.927Z,10.48
2023-04-26T12:07:37.633Z,7.35
2023-04-26T12:10:19.623Z,7.90
2023-04-26T12:12:50.925Z,8.20
2023-04-26T12:15:18.698Z,6.97
2023-04-26T12:17:52.919Z,8.68
2023-04-26T12:26:07.517Z,9.63
2023-04-26T12:28:35.159Z,8.23
2023-04-26T12:31:04.403Z,8.52
2023-04-26T12:33:33.143Z,8.20
2023-04-26T12:36:07.034Z,7.85
2023-04-26T12:41:31.606Z,8.48
2023-04-26T12:43:59.088Z,8.25
2023-04-26T12:46:27.149Z,12.48
2023-04-26T12:48:55.052Z,9.43
2023-04-26T12:51:22.902Z,9.90
2023-04-26T12:53:50.919Z,13.30
2023-04-26T12:56:18.586Z,14.35
2023-04-26T12:58:47.479Z,11.20
2023-04-26T13:01:15.073Z,7.78
2023-04-26T13:03:47.041Z,12.15
2023-04-26T13:06:14.684Z,14.60
2023-04-26T13:08:42.449Z,11.05
2023-04-26T13:11:10.013Z,9.70
2023-04-26T13:13:43.702Z,9.05
2023-04-26T13:16:14.896Z,13.10
2023-04-26T13:18:42.581Z,16.20
2023-04-26T13:21:10.112Z,10.65
2023-04-26T13:23:37.793Z,9.95
2023-04-26T13:26:06.279Z,10.85
2023-04-26T13:28:33.782Z,13.68
2023-04-26T13:31:01.553Z,15.75
2023-04-26T13:33:30.483Z,17.77
2023-04-26T13:35:57.983Z,14.20
2023-04-26T13:41:17.923Z,14.45
2023-04-26T13:43:45.587Z,12.70
2023-04-26T13:46:13.118Z,10.40
2023-04-26T13:48:42.305Z,10.43
2023-04-26T13:51:09.987Z,11.82
2023-04-26T13:53:37.518Z,9.95
2023-04-26T13:56:05.356Z,14.15
2023-04-26T13:58:32.856Z,14.77
2023-04-26T14:01:00.492Z,15.20
2023-04-26T14:03:28.197Z,19.00
2023-04-26T14:05:57.197Z,17.00
2023-04-26T14:08:25.056Z,13.98
2023-04-26T14:10:52.628Z,17.75
2023-04-26T14:13:20.107Z,16.45
2023-04-26T14:15:47.814Z,13.27
2023-04-26T14:18:15.696Z,15.50
2023-04-26T14:20:43.343Z,15.40
2023-04-26T14:23:12.362Z,19.70
2023-04-26T14:25:39.906Z,11.57
2023-04-26T14:28:08.316Z,17.90
2023-04-26T14:30:36.269Z,13.27
2023-04-26T14:38:59.978Z,13.27
2023-04-26T14:41:27.494Z,15.98
2023-04-26T14:43:55.079Z,15.32
2023-04-26T14:46:22.723Z,17.30
2023-04-26T14:48:50.519Z,16.33
2023-04-26T14:51:17.986Z,16.55
2023-04-26T14:53:45.818Z,17.98
2023-04-26T14:56:14.647Z,14.68
2023-04-26T14:58:43.152Z,18.02
2023-04-26T15:01:10.774Z,15.80
2023-04-26T15:03:38.761Z,14.57
2023-04-26T15:06:06.443Z,15.07
2023-04-26T15:08:34.071Z,11.55
2023-04-26T15:11:01.553Z,11.07
2023-04-26T15:13:30.482Z,13.40
2023-04-26T15:15:59.349Z,20.30
2023-04-26T15:18:28.397Z,11.75
2023-04-26T15:20:55.875Z,16.13
2023-04-26T15:23:23.458Z,11.55
2023-04-26T15:25:50.979Z,12.88
2023-04-26T15:28:18.632Z,15.60
2023-04-26T15:30:47.964Z,15.10
2023-04-26T15:33:17.990Z,12.48
2023-04-26T15:35:51.491Z,14.65
2023-04-26T15:38:19.081Z,15.00
2023-04-26T15:40:46.596Z,15.23
2023-04-26T15:43:14.148Z,10.25
2023-04-26T15:45:41.832Z,16.08
2023-04-26T15:48:11.497Z,10.77
2023-04-26T15:50:39.656Z,12.52
2023-04-26T15:53:07.563Z,15.00
2023-04-26T15:55:35.324Z,19.55
2023-04-26T15:58:02.856Z,15.77
2023-04-26T16:00:33.921Z,20.55
2023-04-26T16:03:03.721Z,16.15
2023-04-26T16:05:33.005Z,15.07
2023-04-26T16:08:00.608Z,13.02
2023-04-26T16:10:28.225Z,13.30
2023-04-26T16:12:55.833Z,14.50
2023-04-26T16:15:23.532Z,15.45
2023-04-26T16:17:51.314Z,12.43
2023-04-26T16:20:18.982Z,13.80
2023-04-26T16:22:47.947Z,14.05
2023-04-26T16:25:17.500Z,14.45
2023-04-26T16:27:45.239Z,15.02
2023-04-26T16:30:13.736Z,15.35
2023-04-26T16:32:41.411Z,15.40
2023-04-26T16:35:09.890Z,20.70
2023-04-26T16:37:39.355Z,17.17
2023-04-26T16:40:10.474Z,15.63
2023-04-26T16:42:42.029Z,15.23
2023-04-26T16:45:15.461Z,16.73
2023-04-26T16:47:44.075Z,15.32
2023-04-26T16:50:11.797Z,16.23
2023-04-26T16:52:42.427Z,19.48
2023-04-26T16:55:11.571Z,19.40
2023-04-26T16:57:39.271Z,17.25
2023-04-26T17:00:11.664Z,14.95
2023-04-26T17:02:40.520Z,16.40
2023-04-26T17:05:12.033Z,17.48
2023-04-26T17:07:41.162Z,19.13
2023-04-26T17:10:11.468Z,15.77
2023-04-26T17:12:42.381Z,18.55
2023-04-26T17:15:10.454Z,19.60
2023-04-26T17:17:38.070Z,26.08
2023-04-26T17:20:06.812Z,19.48
2023-04-26T17:22:34.339Z,19.55
2023-04-26T17:25:01.959Z,20.88
2023-04-26T17:27:29.619Z,24.10
2023-04-26T17:29:58.516Z,24.25
2023-04-26T17:32:26.778Z,18.55
2023-04-26T17:34:55.131Z,21.98
2023-04-26T17:37:22.629Z,24.98
2023-04-26T17:39:50.329Z,27.00
2023-04-26T17:42:17.915Z,24.80
2023-04-26T17:44:45.648Z,23.90
2023-04-26T17:47:14.753Z,15.88
2023-04-26T17:52:39.004Z,25.70
2023-04-26T17:55:09.686Z,19.08
2023-04-26T17:57:37.280Z,14.93
2023-04-26T18:00:10.258Z,16.80
2023-04-26T18:02:39.582Z,19.23
2023-04-26T18:05:08.527Z,18.00
2023-04-26T18:07:36.199Z,19.02
2023-04-26T18:10:07.289Z,18.52
2023-04-26T18:12:35.440Z,20.90
2023-04-26T18:15:06.507Z,19.98
2023-04-26T18:17:45.304Z,19.95
2023-04-26T18:20:14.605Z,26.38
2023-04-26T18:22:42.449Z,19.15
2023-04-26T18:25:14.061Z,22.13
2023-04-26T18:27:41.590Z,21.60
2023-04-26T18:30:13.036Z,20.48
2023-04-26T19:22:49.167Z,31.92
2023-04-26T19:25:20.404Z,30.40
2023-04-26T19:27:48.059Z,26.27
2023-04-26T19:30:15.931Z,26.13
2023-04-26T19:32:45.822Z,22.60
2023-04-26T19:35:13.594Z,27.67
2023-04-26T19:37:41.162Z,24.70
2023-04-26T19:40:13.603Z,20.45
2023-04-26T19:42:41.120Z,19.88
2023-04-26T19:45:09.070Z,23.13
2023-04-26T19:47:36.710Z,22.42
2023-04-26T19:50:04.385Z,17.38
2023-04-26T19:52:32.091Z,22.38
2023-04-26T19:55:01.422Z,26.67
2023-04-26T19:57:36.168Z,19.83
2023-04-26T20:00:05.163Z,22.83
2023-04-26T20:02:32.760Z,28.38
2023-04-26T20:05:00.305Z,25.52
2023-04-26T20:10:20.567Z,23.75
2023-04-26T20:12:49.722Z,21.80
2023-04-26T20:15:18.035Z,24.45
2023-04-26T20:17:46.599Z,20.05
2023-04-26T20:20:16.348Z,21.55
2023-04-26T20:22:43.980Z,23.25
2023-04-26T20:25:38.672Z,25.90
2023-04-26T20:28:07.886Z,19.73
2023-04-26T20:30:35.375Z,24.42
2023-04-26T20:33:03.171Z,23.10
2023-04-26T20:35:30.913Z,25.85
2023-04-26T20:37:58.463Z,26.17
2023-04-26T20:40:26.402Z,23.20
2023-04-26T20:42:53.930Z,21.48
2023-04-26T20:45:22.749Z,21.50
2023-04-26T20:47:50.629Z,21.15
2023-04-26T20:50:18.253Z,19.08
2023-04-26T20:52:46.482Z,28.45
2023-04-26T20:55:15.506Z,26.05
2023-04-26T20:57:43.008Z,24.77
2023-04-26T21:00:11.302Z,28.23
2023-04-26T21:02:40.631Z,25.38
2023-04-26T21:05:33.458Z,26.17
2023-04-26T21:08:01.185Z,26.00
2023-04-26T21:10:28.927Z,25.85
2023-04-26T21:12:56.585Z,27.65
2023-04-26T21:15:24.307Z,20.25
2023-04-26T21:17:53.389Z,17.10
2023-04-26T21:20:23.237Z,11.10
2023-04-26T21:22:51.115Z,11.52
2023-04-26T21:25:19.822Z,9.63
2023-04-26T21:27:47.569Z,6.25
2023-04-26T21:30:15.586Z,3.30
2023-04-26T21:32:43.293Z,2.65
2023-04-26T21:35:13.115Z,2.85
2023-04-26T21:37:40.879Z,1.67
2023-04-26T21:40:09.183Z,3.08
2023-04-26T21:42:36.887Z,1.77
2023-04-26T21:45:04.888Z,3.42
2023-04-26T21:47:33.335Z,1.58
2023-04-26T21:50:01.189Z,1.58
2023-04-26T21:58:15.951Z,4.07
2023-04-26T22:00:43.791Z,4.45
2023-04-26T22:03:11.902Z,2.05
2023-04-26T22:05:39.921Z,3.55
2023-04-26T22:08:09.119Z,1.15
2023-04-26T22:10:37.302Z,1.42
2023-04-26T22:13:05.508Z,2.05
2023-04-26T22:15:33.226Z,1.30
2023-04-26T22:18:01.044Z,2.70
2023-04-26T22:20:30.113Z,1.10
2023-04-26T22:22:57.817Z,2.60
2023-04-26T22:25:27.170Z,1.85
2023-04-26T22:27:54.978Z,1.40
2023-04-26T22:30:25.996Z,3.22
2023-04-26T22:32:55.510Z,1.88
2023-04-26T22:35:23.763Z,3.55
2023-04-26T22:37:51.529Z,2.85
2023-04-26T22:40:19.491Z,2.63
2023-04-26T22:42:48.514Z,2.95
2023-04-26T22:45:16.332Z,3.75
2023-04-26T22:47:43.949Z,3.97
2023-04-26T22:50:15.409Z,3.47
2023-04-26T22:52:43.068Z,2.38
2023-04-26T22:55:11.364Z,1.70
2023-04-26T22:57:39.058Z,4.53
2023-04-26T23:00:12.536Z,1.55
2023-04-26T23:02:40.811Z,5.28
2023-04-26T23:05:10.321Z,1.30
2023-04-26T23:07:38.462Z,3.17
2023-04-26T23:10:06.740Z,1.55
2023-04-26T23:12:34.552Z,1.02
2023-04-26T23:15:03.727Z,1.83
2023-04-26T23:17:34.200Z,2.10
2023-04-26T23:20:02.155Z,6.70
2023-04-26T23:22:29.927Z,1.85
2023-04-26T23:24:57.673Z,1.67
2023-04-26T23:27:25.915Z,1.67
2023-04-26T23:29:53.623Z,1.85
2023-04-26T23:32:21.301Z,1.60
2023-04-26T23:34:50.280Z,1.30
2023-04-26T23:37:18.045Z,1.15
2023-04-26T23:39:45.749Z,1.60
2023-04-26T23:42:14.025Z,1.25
2023-04-26T23:44:41.804Z,0.95
2023-04-26T23:47:09.415Z,1.02
2023-04-26T23:49:37.216Z,1.05
2023-04-26T23:52:06.424Z,1.48
2023-04-26T23:54:34.410Z,1.15
2023-04-26T23:57:04.134Z,1.05
2023-04-26T23:59:31.855Z,1.13
